sensor_id;sensor_type;location;lat;lon;timestamp;pressure;altitude;pressure_sealevel;temperature;humidity
12949;BME280;6539;49.476;8.484;2023-12-07T00:01:37;100936.16;;;4.25;100.00
12949;BME280;6539;49.476;8.484;2023-12-07T00:04:23;100932.03;;;4.16;100.00
12949;BME280;6539;49.476;8.484;2023-12-07T00:07:12;100928.09;;;4.13;100.00
12949;BME280;6539;49.476;8.484;2023-12-07T00:09:58;100932.19;;;4.07;100.00
12949;BME280;6539;49.476;8.484;2023-12-07T00:12:44;100931.59;;;4.14;100.00
12949;BME280;6539;49.476;8.484;2023-12-07T00:15:30;100928.53;;;4.15;100.00
12949;BME280;6539;49.476;8.484;2023-12-07T00:18:20;100937.13;;;4.17;100.00
12949;BME280;6539;49.476;8.484;2023-12-07T00:21:13;100938.16;;;4.13;100.00
12949;BME280;6539;49.476;8.484;2023-12-07T00:24:04;100935.34;;;4.09;100.00
12949;BME280;6539;49.476;8.484;2023-12-07T00:26:51;100945.34;;;4.05;100.00
12949;BME280;6539;49.476;8.484;2023-12-07T00:29:39;100942.88;;;4.00;100.00
12949;BME280;6539;49.476;8.484;2023-12-07T00:32:25;100950.13;;;3.96;100.00
12949;BME280;6539;49.476;8.484;2023-12-07T00:35:13;100951.19;;;3.92;100.00
12949;BME280;6539;49.476;8.484;2023-12-07T00:38:02;100944.16;;;3.91;100.00
12949;BME280;6539;49.476;8.484;2023-12-07T00:40:54;100950.38;;;3.91;100.00
12949;BME280;6539;49.476;8.484;2023-12-07T00:43:43;100951.41;;;3.86;100.00
12949;BME280;6539;49.476;8.484;2023-12-07T00:46:29;100949.72;;;3.82;100.00
12949;BME280;6539;49.476;8.484;2023-12-07T00:49:16;100951.56;;;3.78;100.00
12949;BME280;6539;49.476;8.484;2023-12-07T00:52:02;100952.72;;;3.77;100.00
12949;BME280;6539;49.476;8.484;2023-12-07T00:54:48;100954.63;;;3.76;100.00
12949;BME280;6539;49.476;8.484;2023-12-07T00:57:34;100956.69;;;3.67;100.00
12949;BME280;6539;49.476;8.484;2023-12-07T01:00:23;100955.22;;;3.70;100.00
12949;BME280;6539;49.476;8.484;2023-12-07T01:03:09;100957.50;;;3.68;100.00
12949;BME280;6539;49.476;8.484;2023-12-07T01:05:58;100958.63;;;3.67;100.00
12949;BME280;6539;49.476;8.484;2023-12-07T01:08:44;100957.50;;;3.68;100.00
12949;BME280;6539;49.476;8.484;2023-12-07T01:11:30;100967.25;;;3.57;100.00
12949;BME280;6539;49.476;8.484;2023-12-07T01:14:17;100972.16;;;3.51;100.00
12949;BME280;6539;49.476;8.484;2023-12-07T01:17:04;100967.84;;;3.50;100.00
12949;BME280;6539;49.476;8.484;2023-12-07T01:19:53;100970.00;;;3.45;100.00
12949;BME280;6539;49.476;8.484;2023-12-07T01:22:45;100980.66;;;3.38;100.00
12949;BME280;6539;49.476;8.484;2023-12-07T01:25:34;100985.06;;;3.30;100.00
12949;BME280;6539;49.476;8.484;2023-12-07T01:28:25;100985.63;;;3.24;100.00
12949;BME280;6539;49.476;8.484;2023-12-07T01:31:13;100983.63;;;3.21;100.00
12949;BME280;6539;49.476;8.484;2023-12-07T01:34:02;100981.56;;;3.18;100.00
12949;BME280;6539;49.476;8.484;2023-12-07T01:36:51;100987.56;;;3.11;100.00
12949;BME280;6539;49.476;8.484;2023-12-07T01:39:41;100990.63;;;3.09;100.00
12949;BME280;6539;49.476;8.484;2023-12-07T01:42:28;100983.63;;;3.21;100.00
12949;BME280;6539;49.476;8.484;2023-12-07T01:45:14;100990.06;;;3.16;100.00
12949;BME280;6539;49.476;8.484;2023-12-07T01:48:01;100993.00;;;3.11;100.00
12949;BME280;6539;49.476;8.484;2023-12-07T01:50:47;100993.78;;;3.12;100.00
12949;BME280;6539;49.476;8.484;2023-12-07T01:53:34;100993.44;;;3.25;100.00
12949;BME280;6539;49.476;8.484;2023-12-07T01:56:24;100998.06;;;3.25;100.00
12949;BME280;6539;49.476;8.484;2023-12-07T01:59:11;101002.59;;;3.21;100.00
12949;BME280;6539;49.476;8.484;2023-12-07T02:01:57;100997.84;;;3.30;100.00
12949;BME280;6539;49.476;8.484;2023-12-07T02:04:44;100989.69;;;3.42;100.00
12949;BME280;6539;49.476;8.484;2023-12-07T02:07:31;100981.53;;;3.42;100.00
12949;BME280;6539;49.476;8.484;2023-12-07T02:10:18;100984.25;;;3.42;100.00
12949;BME280;6539;49.476;8.484;2023-12-07T02:13:08;100984.69;;;3.44;100.00
12949;BME280;6539;49.476;8.484;2023-12-07T02:15:59;100983.59;;;3.45;100.00
12949;BME280;6539;49.476;8.484;2023-12-07T02:18:57;100982.78;;;3.32;100.00
12949;BME280;6539;49.476;8.484;2023-12-07T02:22:27;100990.03;;;3.28;100.00
12949;BME280;6539;49.476;8.484;2023-12-07T02:25:18;100989.28;;;3.28;100.00
12949;BME280;6539;49.476;8.484;2023-12-07T02:28:04;100989.38;;;3.31;100.00
12949;BME280;6539;49.476;8.484;2023-12-07T02:30:50;100991.84;;;3.24;100.00
12949;BME280;6539;49.476;8.484;2023-12-07T02:33:36;100990.16;;;3.20;100.00
12949;BME280;6539;49.476;8.484;2023-12-07T02:36:27;100987.69;;;3.15;100.00
12949;BME280;6539;49.476;8.484;2023-12-07T02:39:14;100993.00;;;3.11;100.00
12949;BME280;6539;49.476;8.484;2023-12-07T02:42:01;100989.03;;;3.08;100.00
12949;BME280;6539;49.476;8.484;2023-12-07T02:44:47;100984.84;;;3.11;100.00
12949;BME280;6539;49.476;8.484;2023-12-07T02:47:36;100981.25;;;3.07;100.00
12949;BME280;6539;49.476;8.484;2023-12-07T02:50:22;100980.91;;;3.08;100.00
12949;BME280;6539;49.476;8.484;2023-12-07T02:53:11;100987.47;;;3.07;100.00
12949;BME280;6539;49.476;8.484;2023-12-07T02:55:59;100995.03;;;3.02;100.00
12949;BME280;6539;49.476;8.484;2023-12-07T02:58:45;100984.88;;;2.99;100.00
12949;BME280;6539;49.476;8.484;2023-12-07T03:01:31;100988.59;;;2.94;100.00
12949;BME280;6539;49.476;8.484;2023-12-07T03:04:17;100993.47;;;2.89;100.00
12949;BME280;6539;49.476;8.484;2023-12-07T03:07:05;100995.50;;;2.92;100.00
12949;BME280;6539;49.476;8.484;2023-12-07T03:09:53;100988.38;;;2.87;100.00
12949;BME280;6539;49.476;8.484;2023-12-07T03:12:39;100996.63;;;2.79;100.00
12949;BME280;6539;49.476;8.484;2023-12-07T03:15:25;100992.00;;;2.67;100.00
12949;BME280;6539;49.476;8.484;2023-12-07T03:18:12;100995.91;;;2.58;100.00
12949;BME280;6539;49.476;8.484;2023-12-07T03:21:01;100996.03;;;2.49;100.00
12949;BME280;6539;49.476;8.484;2023-12-07T03:23:47;100996.47;;;2.51;100.00
12949;BME280;6539;49.476;8.484;2023-12-07T03:26:35;101005.06;;;2.65;100.00
12949;BME280;6539;49.476;8.484;2023-12-07T03:29:21;101006.56;;;2.63;100.00
12949;BME280;6539;49.476;8.484;2023-12-07T03:32:08;101006.88;;;2.61;100.00
12949;BME280;6539;49.476;8.484;2023-12-07T03:34:54;101002.50;;;2.69;100.00
12949;BME280;6539;49.476;8.484;2023-12-07T03:37:40;101004.50;;;2.72;100.00
12949;BME280;6539;49.476;8.484;2023-12-07T03:40:28;101004.19;;;2.73;100.00
12949;BME280;6539;49.476;8.484;2023-12-07T03:43:14;101011.19;;;2.74;100.00
12949;BME280;6539;49.476;8.484;2023-12-07T03:46:07;101011.19;;;2.74;100.00
12949;BME280;6539;49.476;8.484;2023-12-07T03:48:53;101006.91;;;2.73;100.00
12949;BME280;6539;49.476;8.484;2023-12-07T03:51:39;101009.63;;;2.73;100.00
12949;BME280;6539;49.476;8.484;2023-12-07T03:54:25;101013.44;;;2.72;100.00
12949;BME280;6539;49.476;8.484;2023-12-07T03:57:11;101013.88;;;2.62;100.00
12949;BME280;6539;49.476;8.484;2023-12-07T03:59:57;101013.88;;;2.50;100.00
12949;BME280;6539;49.476;8.484;2023-12-07T04:02:46;101016.66;;;2.42;100.00
12949;BME280;6539;49.476;8.484;2023-12-07T04:05:34;101009.31;;;2.30;100.00
12949;BME280;6539;49.476;8.484;2023-12-07T04:08:23;101015.16;;;2.20;100.00
12949;BME280;6539;49.476;8.484;2023-12-07T04:11:11;101016.00;;;2.12;100.00
12949;BME280;6539;49.476;8.484;2023-12-07T04:14:00;101023.91;;;2.05;100.00
12949;BME280;6539;49.476;8.484;2023-12-07T04:16:48;101021.84;;;2.02;100.00
12949;BME280;6539;49.476;8.484;2023-12-07T04:19:37;101026.47;;;2.01;100.00
12949;BME280;6539;49.476;8.484;2023-12-07T04:22:24;101024.75;;;1.97;100.00
12949;BME280;6539;49.476;8.484;2023-12-07T04:25:12;101021.56;;;1.95;100.00
12949;BME280;6539;49.476;8.484;2023-12-07T04:27:59;101018.41;;;1.93;100.00
12949;BME280;6539;49.476;8.484;2023-12-07T04:30:47;101016.50;;;1.93;100.00
12949;BME280;6539;49.476;8.484;2023-12-07T04:33:34;101029.25;;;1.93;100.00
12949;BME280;6539;49.476;8.484;2023-12-07T04:36:23;101029.25;;;1.93;100.00
12949;BME280;6539;49.476;8.484;2023-12-07T04:39:09;101037.16;;;1.98;100.00
12949;BME280;6539;49.476;8.484;2023-12-07T04:41:58;101041.91;;;2.01;100.00
12949;BME280;6539;49.476;8.484;2023-12-07T04:44:47;101039.66;;;2.03;100.00
12949;BME280;6539;49.476;8.484;2023-12-07T04:47:33;101038.09;;;2.02;100.00
12949;BME280;6539;49.476;8.484;2023-12-07T04:50:19;101046.66;;;2.04;100.00
12949;BME280;6539;49.476;8.484;2023-12-07T04:53:05;101043.31;;;2.07;100.00
12949;BME280;6539;49.476;8.484;2023-12-07T04:55:51;101047.13;;;2.06;100.00
12949;BME280;6539;49.476;8.484;2023-12-07T04:58:37;101052.34;;;2.11;100.00
12949;BME280;6539;49.476;8.484;2023-12-07T05:01:26;101046.25;;;2.14;100.00
12949;BME280;6539;49.476;8.484;2023-12-07T05:04:12;101029.00;;;2.18;100.00
12949;BME280;6539;49.476;8.484;2023-12-07T05:07:01;101038.84;;;2.23;100.00
12949;BME280;6539;49.476;8.484;2023-12-07T05:09:52;101031.84;;;2.22;100.00
12949;BME280;6539;49.476;8.484;2023-12-07T05:12:39;101031.78;;;2.30;100.00
12949;BME280;6539;49.476;8.484;2023-12-07T05:15:25;101030.06;;;2.26;100.00
12949;BME280;6539;49.476;8.484;2023-12-07T05:18:13;101021.59;;;2.27;100.00
12949;BME280;6539;49.476;8.484;2023-12-07T05:20:59;101038.00;;;2.43;100.00
12949;BME280;6539;49.476;8.484;2023-12-07T05:23:45;101027.88;;;2.52;100.00
12949;BME280;6539;49.476;8.484;2023-12-07T05:26:31;101030.91;;;2.51;100.00
12949;BME280;6539;49.476;8.484;2023-12-07T05:29:18;101038.81;;;2.44;100.00
12949;BME280;6539;49.476;8.484;2023-12-07T05:32:07;101032.59;;;2.43;100.00
12949;BME280;6539;49.476;8.484;2023-12-07T05:34:53;101038.31;;;2.42;100.00
12949;BME280;6539;49.476;8.484;2023-12-07T05:37:39;101035.38;;;2.35;100.00
12949;BME280;6539;49.476;8.484;2023-12-07T05:40:25;101042.06;;;2.37;100.00
12949;BME280;6539;49.476;8.484;2023-12-07T05:43:14;101034.03;;;2.41;100.00
12949;BME280;6539;49.476;8.484;2023-12-07T05:46:00;101033.25;;;2.40;100.00
12949;BME280;6539;49.476;8.484;2023-12-07T05:48:46;101032.44;;;2.40;100.00
12949;BME280;6539;49.476;8.484;2023-12-07T05:51:35;101038.09;;;2.35;100.00
12949;BME280;6539;49.476;8.484;2023-12-07T05:54:26;101043.81;;;2.33;100.00
12949;BME280;6539;49.476;8.484;2023-12-07T05:57:12;101041.00;;;2.29;100.00
12949;BME280;6539;49.476;8.484;2023-12-07T06:00:01;101045.63;;;2.29;100.00
12949;BME280;6539;49.476;8.484;2023-12-07T06:02:48;101034.22;;;2.23;100.00
12949;BME280;6539;49.476;8.484;2023-12-07T06:05:37;101039.53;;;2.20;100.00
12949;BME280;6539;49.476;8.484;2023-12-07T06:08:26;101044.94;;;2.20;100.00
12949;BME280;6539;49.476;8.484;2023-12-07T06:11:12;101048.75;;;2.19;100.00
12949;BME280;6539;49.476;8.484;2023-12-07T06:14:01;101040.06;;;2.13;100.00
12949;BME280;6539;49.476;8.484;2023-12-07T06:16:52;101037.22;;;2.10;100.00
12949;BME280;6539;49.476;8.484;2023-12-07T06:19:38;101039.34;;;2.04;100.00
12949;BME280;6539;49.476;8.484;2023-12-07T06:22:24;101045.34;;;2.10;100.00
12949;BME280;6539;49.476;8.484;2023-12-07T06:25:10;101045.56;;;2.05;100.00
12949;BME280;6539;49.476;8.484;2023-12-07T06:27:57;101042.13;;;1.96;100.00
12949;BME280;6539;49.476;8.484;2023-12-07T06:30:46;101054.59;;;1.88;100.00
12949;BME280;6539;49.476;8.484;2023-12-07T06:33:32;101048.25;;;1.84;100.00
12949;BME280;6539;49.476;8.484;2023-12-07T06:36:23;101054.94;;;1.87;100.00
12949;BME280;6539;49.476;8.484;2023-12-07T06:39:11;101052.88;;;1.84;100.00
12949;BME280;6539;49.476;8.484;2023-12-07T06:41:57;101057.25;;;1.76;100.00
12949;BME280;6539;49.476;8.484;2023-12-07T06:44:49;101059.03;;;1.72;100.00
12949;BME280;6539;49.476;8.484;2023-12-07T06:47:40;101055.53;;;1.72;100.00
12949;BME280;6539;49.476;8.484;2023-12-07T06:50:31;101054.38;;;1.73;100.00
12949;BME280;6539;49.476;8.484;2023-12-07T06:53:17;101052.81;;;1.72;100.00
12949;BME280;6539;49.476;8.484;2023-12-07T06:56:07;101052.16;;;1.75;100.00
12949;BME280;6539;49.476;8.484;2023-12-07T06:58:55;101056.91;;;1.78;100.00
12949;BME280;6539;49.476;8.484;2023-12-07T07:01:42;101053.28;;;1.74;100.00
12949;BME280;6539;49.476;8.484;2023-12-07T07:04:28;101053.56;;;1.81;100.00
12949;BME280;6539;49.476;8.484;2023-12-07T07:07:16;101053.75;;;1.76;100.00
12949;BME280;6539;49.476;8.484;2023-12-07T07:10:02;101062.19;;;1.74;100.00
12949;BME280;6539;49.476;8.484;2023-12-07T07:12:50;101053.63;;;1.72;100.00
12949;BME280;6539;49.476;8.484;2023-12-07T07:15:39;101062.03;;;1.71;100.00
12949;BME280;6539;49.476;8.484;2023-12-07T07:18:32;101063.97;;;1.70;100.00
12949;BME280;6539;49.476;8.484;2023-12-07T07:21:18;101065.56;;;1.71;100.00
12949;BME280;6539;49.476;8.484;2023-12-07T07:24:08;101080.34;;;1.74;100.00
12949;BME280;6539;49.476;8.484;2023-12-07T07:26:57;101084.94;;;1.73;100.00
12949;BME280;6539;49.476;8.484;2023-12-07T07:29:43;101086.84;;;1.73;100.00
12949;BME280;6539;49.476;8.484;2023-12-07T07:32:30;101083.22;;;1.69;100.00
12949;BME280;6539;49.476;8.484;2023-12-07T07:35:16;101084.81;;;1.70;100.00
12949;BME280;6539;49.476;8.484;2023-12-07T07:38:03;101078.75;;;2.14;100.00
12949;BME280;6539;49.476;8.484;2023-12-07T07:40:51;101084.84;;;2.11;100.00
12949;BME280;6539;49.476;8.484;2023-12-07T07:43:37;101087.75;;;2.06;100.00
12949;BME280;6539;49.476;8.484;2023-12-07T07:46:24;101091.03;;;2.11;100.00
12949;BME280;6539;49.476;8.484;2023-12-07T07:49:13;101087.84;;;2.09;100.00
12949;BME280;6539;49.476;8.484;2023-12-07T07:51:59;101096.31;;;2.08;100.00
12949;BME280;6539;49.476;8.484;2023-12-07T07:54:48;101089.91;;;2.12;100.00
12949;BME280;6539;49.476;8.484;2023-12-07T07:57:36;101087.31;;;2.16;100.00
12949;BME280;6539;49.476;8.484;2023-12-07T08:00:22;101082.56;;;2.33;100.00
12949;BME280;6539;49.476;8.484;2023-12-07T08:03:12;101077.75;;;2.39;100.00
12949;BME280;6539;49.476;8.484;2023-12-07T08:06:00;101074.06;;;2.56;100.00
12949;BME280;6539;49.476;8.484;2023-12-07T08:08:47;101063.78;;;2.61;100.00
12949;BME280;6539;49.476;8.484;2023-12-07T08:11:35;101064.69;;;2.65;100.00
12949;BME280;6539;49.476;8.484;2023-12-07T08:14:21;101064.94;;;2.72;100.00
12949;BME280;6539;49.476;8.484;2023-12-07T08:17:07;101052.28;;;2.76;100.00
12949;BME280;6539;49.476;8.484;2023-12-07T08:19:54;101043.72;;;2.74;100.00
12949;BME280;6539;49.476;8.484;2023-12-07T08:22:40;101048.00;;;2.75;100.00
12949;BME280;6539;49.476;8.484;2023-12-07T08:25:31;101050.47;;;2.68;100.00
12949;BME280;6539;49.476;8.484;2023-12-07T08:28:20;101051.03;;;2.62;100.00
12949;BME280;6539;49.476;8.484;2023-12-07T08:31:10;101043.69;;;2.62;100.00
12949;BME280;6539;49.476;8.484;2023-12-07T08:33:59;101042.34;;;2.56;100.00
12949;BME280;6539;49.476;8.484;2023-12-07T08:36:46;101043.19;;;2.48;100.00
12949;BME280;6539;49.476;8.484;2023-12-07T08:39:32;101044.34;;;2.47;100.00
12949;BME280;6539;49.476;8.484;2023-12-07T08:42:18;101048.75;;;2.52;100.00
12949;BME280;6539;49.476;8.484;2023-12-07T08:45:05;101046.69;;;2.49;100.00
12949;BME280;6539;49.476;8.484;2023-12-07T08:47:51;101039.63;;;2.56;100.00
12949;BME280;6539;49.476;8.484;2023-12-07T08:50:37;101051.56;;;2.55;100.00
12949;BME280;6539;49.476;8.484;2023-12-07T08:53:25;101058.81;;;2.63;100.00
12949;BME280;6539;49.476;8.484;2023-12-07T08:56:12;101057.81;;;2.68;100.00
12949;BME280;6539;49.476;8.484;2023-12-07T08:59:01;101051.38;;;2.72;100.00
12949;BME280;6539;49.476;8.484;2023-12-07T09:01:47;101056.16;;;2.75;100.00
12949;BME280;6539;49.476;8.484;2023-12-07T09:04:36;101054.34;;;2.79;100.00
12949;BME280;6539;49.476;8.484;2023-12-07T09:07:30;101050.28;;;2.85;100.00
12949;BME280;6539;49.476;8.484;2023-12-07T09:10:16;101045.31;;;2.75;100.00
12949;BME280;6539;49.476;8.484;2023-12-07T09:13:04;101048.00;;;2.75;100.00
12949;BME280;6539;49.476;8.484;2023-12-07T09:15:51;101060.66;;;2.71;100.00
12949;BME280;6539;49.476;8.484;2023-12-07T09:18:41;101045.50;;;2.70;100.00
12949;BME280;6539;49.476;8.484;2023-12-07T09:21:27;101042.44;;;2.60;100.00
12949;BME280;6539;49.476;8.484;2023-12-07T09:24:13;101042.28;;;2.44;100.00
12949;BME280;6539;49.476;8.484;2023-12-07T09:27:02;101054.38;;;2.47;100.00
12949;BME280;6539;49.476;8.484;2023-12-07T09:29:50;101052.91;;;2.49;100.00
12949;BME280;6539;49.476;8.484;2023-12-07T09:32:40;101052.22;;;2.40;100.00
12949;BME280;6539;49.476;8.484;2023-12-07T09:35:30;101050.03;;;2.33;100.00
12949;BME280;6539;49.476;8.484;2023-12-07T09:38:19;101054.66;;;2.33;100.00
12949;BME280;6539;49.476;8.484;2023-12-07T09:41:08;101056.25;;;2.34;100.00
12949;BME280;6539;49.476;8.484;2023-12-07T09:43:54;101065.19;;;2.35;100.00
12949;BME280;6539;49.476;8.484;2023-12-07T09:46:43;101065.03;;;2.31;100.00
12949;BME280;6539;49.476;8.484;2023-12-07T09:49:30;101059.84;;;2.26;100.00
12949;BME280;6539;49.476;8.484;2023-12-07T09:52:21;101056.16;;;2.30;100.00
12949;BME280;6539;49.476;8.484;2023-12-07T09:55:09;101041.72;;;2.39;100.00
12949;BME280;6539;49.476;8.484;2023-12-07T09:57:57;101046.13;;;2.43;100.00
12949;BME280;6539;49.476;8.484;2023-12-07T10:00:47;101042.44;;;2.48;100.00
12949;BME280;6539;49.476;8.484;2023-12-07T10:03:34;101041.63;;;2.47;100.00
12949;BME280;6539;49.476;8.484;2023-12-07T10:06:22;101038.03;;;2.55;100.00
12949;BME280;6539;49.476;8.484;2023-12-07T10:09:08;101039.63;;;2.56;100.00
12949;BME280;6539;49.476;8.484;2023-12-07T10:12:05;101031.25;;;2.61;100.00
12949;BME280;6539;49.476;8.484;2023-12-07T10:14:51;101026.69;;;2.74;100.00
12949;BME280;6539;49.476;8.484;2023-12-07T10:17:56;101030.84;;;2.95;100.00
12949;BME280;6539;49.476;8.484;2023-12-07T10:20:45;101029.38;;;2.98;100.00
12949;BME280;6539;49.476;8.484;2023-12-07T10:23:36;101026.34;;;3.12;100.00
12949;BME280;6539;49.476;8.484;2023-12-07T10:26:22;101028.13;;;3.20;100.00
12949;BME280;6539;49.476;8.484;2023-12-07T10:29:10;101019.31;;;3.35;100.00
12949;BME280;6539;49.476;8.484;2023-12-07T10:32:02;101018.88;;;3.45;100.00
12949;BME280;6539;49.476;8.484;2023-12-07T10:34:52;101022.22;;;3.54;100.00
12949;BME280;6539;49.476;8.484;2023-12-07T10:37:42;101020.66;;;3.53;100.00
12949;BME280;6539;49.476;8.484;2023-12-07T10:40:28;101008.31;;;3.55;100.00
12949;BME280;6539;49.476;8.484;2023-12-07T10:43:17;101019.06;;;3.52;100.00
12949;BME280;6539;49.476;8.484;2023-12-07T10:46:06;100998.34;;;3.59;100.00
12949;BME280;6539;49.476;8.484;2023-12-07T10:49:04;100998.22;;;3.68;100.00
12949;BME280;6539;49.476;8.484;2023-12-07T10:52:00;100992.19;;;3.74;100.00
12949;BME280;6539;49.476;8.484;2023-12-07T10:55:07;100978.84;;;3.69;100.00
12949;BME280;6539;49.476;8.484;2023-12-07T10:57:57;100974.22;;;3.70;100.00
12949;BME280;6539;49.476;8.484;2023-12-07T11:00:46;100971.88;;;3.68;100.00
12949;BME280;6539;49.476;8.484;2023-12-07T11:03:33;100958.88;;;3.62;100.00
12949;BME280;6539;49.476;8.484;2023-12-07T11:06:22;100957.94;;;3.70;100.00
12949;BME280;6539;49.476;8.484;2023-12-07T11:09:25;100949.88;;;4.01;100.00
12949;BME280;6539;49.476;8.484;2023-12-07T11:12:35;100949.91;;;4.95;100.00
12949;BME280;6539;49.476;8.484;2023-12-07T11:15:23;100940.03;;;6.17;98.90
12949;BME280;6539;49.476;8.484;2023-12-07T11:18:10;100947.56;;;6.95;86.15
12949;BME280;6539;49.476;8.484;2023-12-07T11:21:00;100932.25;;;6.64;88.47
12949;BME280;6539;49.476;8.484;2023-12-07T11:23:47;100933.06;;;8.13;82.55
12949;BME280;6539;49.476;8.484;2023-12-07T11:26:34;100928.91;;;9.25;73.87
12949;BME280;6539;49.476;8.484;2023-12-07T11:29:28;100928.44;;;10.09;68.62
12949;BME280;6539;49.476;8.484;2023-12-07T11:32:15;100909.69;;;10.32;69.01
12949;BME280;6539;49.476;8.484;2023-12-07T11:35:11;100903.44;;;10.45;68.03
12949;BME280;6539;49.476;8.484;2023-12-07T11:38:09;100904.97;;;10.96;65.63
12949;BME280;6539;49.476;8.484;2023-12-07T11:40:59;100908.28;;;11.67;62.23
12949;BME280;6539;49.476;8.484;2023-12-07T11:43:50;100895.25;;;11.85;60.50
12949;BME280;6539;49.476;8.484;2023-12-07T11:46:41;100891.00;;;12.35;57.96
12949;BME280;6539;49.476;8.484;2023-12-07T11:49:31;100891.91;;;12.18;59.09
12949;BME280;6539;49.476;8.484;2023-12-07T11:52:23;100879.69;;;12.22;58.34
12949;BME280;6539;49.476;8.484;2023-12-07T11:55:12;100879.84;;;12.53;56.29
12949;BME280;6539;49.476;8.484;2023-12-07T11:58:00;100865.25;;;12.04;58.37
12949;BME280;6539;49.476;8.484;2023-12-07T12:00:47;100854.84;;;11.75;58.41
12949;BME280;6539;49.476;8.484;2023-12-07T12:03:38;100859.44;;;11.02;60.30
12949;BME280;6539;49.476;8.484;2023-12-07T12:06:29;100850.06;;;9.97;64.29
12949;BME280;6539;49.476;8.484;2023-12-07T12:09:23;100852.03;;;8.93;68.80
12949;BME280;6539;49.476;8.484;2023-12-07T12:12:09;100839.06;;;8.28;72.13
12949;BME280;6539;49.476;8.484;2023-12-07T12:14:55;100840.66;;;7.89;75.56
12949;BME280;6539;49.476;8.484;2023-12-07T12:17:47;100844.25;;;7.60;77.42
12949;BME280;6539;49.476;8.484;2023-12-07T12:20:34;100827.03;;;7.23;79.39
12949;BME280;6539;49.476;8.484;2023-12-07T12:23:23;100819.53;;;6.83;81.39
12949;BME280;6539;49.476;8.484;2023-12-07T12:26:09;100817.00;;;6.71;83.90
12949;BME280;6539;49.476;8.484;2023-12-07T12:28:56;100808.47;;;6.72;84.64
12949;BME280;6539;49.476;8.484;2023-12-07T12:31:42;100814.56;;;6.62;85.74
12949;BME280;6539;49.476;8.484;2023-12-07T12:34:28;100811.81;;;6.36;87.55
12949;BME280;6539;49.476;8.484;2023-12-07T12:37:18;100804.22;;;6.23;89.18
12949;BME280;6539;49.476;8.484;2023-12-07T12:40:08;100813.00;;;6.12;89.73
12949;BME280;6539;49.476;8.484;2023-12-07T12:42:57;100809.69;;;6.00;90.55
12949;BME280;6539;49.476;8.484;2023-12-07T12:45:46;100816.53;;;5.90;91.01
12949;BME280;6539;49.476;8.484;2023-12-07T12:48:33;100804.84;;;5.90;91.80
12949;BME280;6539;49.476;8.484;2023-12-07T12:51:19;100797.06;;;5.88;92.03
12949;BME280;6539;49.476;8.484;2023-12-07T12:54:05;100799.78;;;5.88;92.07
12949;BME280;6539;49.476;8.484;2023-12-07T12:56:51;100795.63;;;5.98;91.22
12949;BME280;6539;49.476;8.484;2023-12-07T12:59:37;100789.13;;;5.83;90.94
12949;BME280;6539;49.476;8.484;2023-12-07T13:02:24;100793.63;;;5.72;91.83
12949;BME280;6539;49.476;8.484;2023-12-07T13:05:10;100784.31;;;5.73;92.34
12949;BME280;6539;49.476;8.484;2023-12-07T13:08:01;100781.69;;;5.58;93.06
12949;BME280;6539;49.476;8.484;2023-12-07T13:10:50;100779.56;;;5.48;93.78
12949;BME280;6539;49.476;8.484;2023-12-07T13:13:36;100775.06;;;5.36;94.80
12949;BME280;6539;49.476;8.484;2023-12-07T13:16:25;100776.44;;;5.26;95.81
12949;BME280;6539;49.476;8.484;2023-12-07T13:19:13;100774.13;;;5.28;96.35
12949;BME280;6539;49.476;8.484;2023-12-07T13:22:05;100772.06;;;5.22;96.60
12949;BME280;6539;49.476;8.484;2023-12-07T13:24:54;100782.47;;;5.16;97.16
12949;BME280;6539;49.476;8.484;2023-12-07T13:27:42;100785.59;;;5.18;98.13
12949;BME280;6539;49.476;8.484;2023-12-07T13:30:31;100786.19;;;5.08;98.77
12949;BME280;6539;49.476;8.484;2023-12-07T13:33:21;100783.81;;;5.07;99.30
12949;BME280;6539;49.476;8.484;2023-12-07T13:36:11;100784.19;;;5.05;99.50
12949;BME280;6539;49.476;8.484;2023-12-07T13:38:57;100793.84;;;5.03;100.00
12949;BME280;6539;49.476;8.484;2023-12-07T13:41:48;100797.34;;;5.03;100.00
12949;BME280;6539;49.476;8.484;2023-12-07T13:44:35;100778.25;;;5.00;100.00
12949;BME280;6539;49.476;8.484;2023-12-07T13:47:21;100778.59;;;4.98;100.00
12949;BME280;6539;49.476;8.484;2023-12-07T13:50:10;100770.09;;;5.00;99.94
12949;BME280;6539;49.476;8.484;2023-12-07T13:52:57;100772.00;;;4.99;99.71
12949;BME280;6539;49.476;8.484;2023-12-07T13:55:46;100776.22;;;4.97;100.00
12949;BME280;6539;49.476;8.484;2023-12-07T13:58:32;100784.66;;;4.92;100.00
12949;BME280;6539;49.476;8.484;2023-12-07T14:01:21;100778.38;;;4.88;100.00
12949;BME280;6539;49.476;8.484;2023-12-07T14:04:11;100781.09;;;4.88;100.00
12949;BME280;6539;49.476;8.484;2023-12-07T14:07:14;100770.22;;;4.88;99.66
12949;BME280;6539;49.476;8.484;2023-12-07T14:10:03;100769.06;;;4.70;100.00
12949;BME280;6539;49.476;8.484;2023-12-07T14:12:49;100764.09;;;4.56;100.00
12949;BME280;6539;49.476;8.484;2023-12-07T14:15:38;100756.00;;;4.40;100.00
12949;BME280;6539;49.476;8.484;2023-12-07T14:18:24;100746.13;;;4.32;100.00
12949;BME280;6539;49.476;8.484;2023-12-07T14:21:19;100739.28;;;4.23;100.00
12949;BME280;6539;49.476;8.484;2023-12-07T14:24:08;100727.78;;;4.29;100.00
12949;BME280;6539;49.476;8.484;2023-12-07T14:26:54;100711.13;;;4.12;100.00
12949;BME280;6539;49.476;8.484;2023-12-07T14:29:41;100701.41;;;3.95;100.00
12949;BME280;6539;49.476;8.484;2023-12-07T14:32:29;100691.88;;;3.85;100.00
12949;BME280;6539;49.476;8.484;2023-12-07T14:35:15;100689.34;;;3.77;100.00
12949;BME280;6539;49.476;8.484;2023-12-07T14:38:02;100689.63;;;3.72;100.00
12949;BME280;6539;49.476;8.484;2023-12-07T14:40:49;100678.06;;;3.75;100.00
12949;BME280;6539;49.476;8.484;2023-12-07T14:43:40;100682.44;;;3.64;100.00
12949;BME280;6539;49.476;8.484;2023-12-07T14:46:26;100687.94;;;3.52;100.00
12949;BME280;6539;49.476;8.484;2023-12-07T14:49:17;100675.78;;;3.46;100.00
12949;BME280;6539;49.476;8.484;2023-12-07T14:52:10;100678.44;;;3.42;100.00
12949;BME280;6539;49.476;8.484;2023-12-07T14:54:56;100670.09;;;3.35;100.00